Kezdőlap
METAR-TAF:

METAR-TAF

Repülőterek :

Voronyezs, Oroszország

földrajzi szélesség: 51-39N, földrajzi hosszúság: 039-15E, magasság: 154 m

Jelenlegi meteorológiai megfigyelések

A jelentés 47 perccel ezelõtt készült, 02:30 UTC
Szélcsend
Hőmérséklet -24°C
Páratartalom 76%
Légköri nyomás 1022 hPa
Látótávolság: 0100 m
zúzmarás köd

METAR: UUOO 230230Z 00000MPS 0450 0100NW R30/1300U FZFG VV008 M24/M27 Q1022 R30/820247 TEMPO 0300 FZFG VV001 RMK QFE753

Idő: 06:17 (03:17 UTC)

Előrejelzés

A jelentés 1 órával és 17 perccel ezelõtt készült, 02:00 UTC
Az előrejelzés 23-én 03 óra UTC és 23-én 12 óra UTC között érvényes
Különbözõ irányokból fújó szél 2 kt
Látótávolság: 3100 m
Borult 700 lábon
Párásság
23-én 03 óra UTC és 23-én 06 óra UTC között ideiglenes
Látótávolság: 0600 m
200 lábon
zúzmarás köd

TAF: UUOO 230200Z 2303/2312 VRB01MPS 3100 BR OVC007 TEMPO 2303/2306 0600 FZFG VV002

Meteorológiai megfigyelések és előrejelzések több, mint 4000 repülőtéren (METAR és TAF jelentéseket).

A térképen piros és sárga pontok jelzik az elérhető meteorológiai állomásokat.

Mozgassa az egeret a pont fölött, hogy megjelenjen az állomás neve.

Azután kattintson az időjárási megfigyelések és előrejelzések megtekintéséhez.

A térkép megváltoztatása: kattintson a fekete keresztel jelölt zöld gombra ráközelítéshez, a vonallal jelölt zöld gombra távolításhoz, vagy a zöld nyilakra a szomszédos térképek eléréséhez.


METAR-TAF: